sensor_id;sensor_type;location;lat;lon;timestamp;P1;durP1;ratioP1;P2;durP2;ratioP2
65073;SDS011;52218;51.224;-2.328;2022-07-04T00:01:54;1.98;;;0.60;;
65073;SDS011;52218;51.224;-2.328;2022-07-04T00:05:36;2.45;;;0.50;;
65073;SDS011;52218;51.224;-2.328;2022-07-04T00:09:18;2.22;;;0.68;;
65073;SDS011;52218;51.224;-2.328;2022-07-04T00:13:00;2.38;;;0.55;;
65073;SDS011;52218;51.224;-2.328;2022-07-04T00:16:42;1.05;;;0.50;;
65073;SDS011;52218;51.224;-2.328;2022-07-04T00:20:24;2.67;;;0.60;;
65073;SDS011;52218;51.224;-2.328;2022-07-04T00:24:06;1.80;;;0.52;;
65073;SDS011;52218;51.224;-2.328;2022-07-04T00:27:48;2.50;;;0.55;;
65073;SDS011;52218;51.224;-2.328;2022-07-04T00:31:30;2.60;;;0.50;;
65073;SDS011;52218;51.224;-2.328;2022-07-04T00:35:15;1.40;;;0.30;;
65073;SDS011;52218;51.224;-2.328;2022-07-04T00:38:57;1.77;;;0.75;;
65073;SDS011;52218;51.224;-2.328;2022-07-04T00:42:39;1.63;;;0.60;;
65073;SDS011;52218;51.224;-2.328;2022-07-04T00:46:21;2.05;;;0.73;;
65073;SDS011;52218;51.224;-2.328;2022-07-04T00:50:03;1.77;;;0.52;;
65073;SDS011;52218;51.224;-2.328;2022-07-04T00:53:45;3.13;;;0.70;;
65073;SDS011;52218;51.224;-2.328;2022-07-04T00:57:28;1.77;;;0.50;;
65073;SDS011;52218;51.224;-2.328;2022-07-04T01:01:10;2.53;;;0.80;;
65073;SDS011;52218;51.224;-2.328;2022-07-04T01:04:52;2.47;;;0.60;;
65073;SDS011;52218;51.224;-2.328;2022-07-04T01:08:39;1.67;;;0.60;;
65073;SDS011;52218;51.224;-2.328;2022-07-04T01:12:26;1.02;;;0.55;;
65073;SDS011;52218;51.224;-2.328;2022-07-04T01:16:10;3.85;;;0.60;;
65073;SDS011;52218;51.224;-2.328;2022-07-04T01:19:52;1.17;;;0.50;;
65073;SDS011;52218;51.224;-2.328;2022-07-04T01:23:38;2.78;;;0.70;;
65073;SDS011;52218;51.224;-2.328;2022-07-04T01:27:21;2.53;;;0.80;;
65073;SDS011;52218;51.224;-2.328;2022-07-04T01:31:02;3.22;;;0.70;;
65073;SDS011;52218;51.224;-2.328;2022-07-04T01:34:45;2.08;;;0.65;;
65073;SDS011;52218;51.224;-2.328;2022-07-04T01:38:27;1.05;;;0.50;;
65073;SDS011;52218;51.224;-2.328;2022-07-04T01:42:09;2.42;;;0.60;;
65073;SDS011;52218;51.224;-2.328;2022-07-04T01:45:52;1.52;;;0.57;;
65073;SDS011;52218;51.224;-2.328;2022-07-04T01:49:34;2.22;;;0.73;;
65073;SDS011;52218;51.224;-2.328;2022-07-04T01:53:16;1.00;;;0.57;;
65073;SDS011;52218;51.224;-2.328;2022-07-04T01:56:58;1.30;;;0.52;;
65073;SDS011;52218;51.224;-2.328;2022-07-04T02:00:40;2.40;;;0.98;;
65073;SDS011;52218;51.224;-2.328;2022-07-04T02:04:40;0.93;;;0.60;;
65073;SDS011;52218;51.224;-2.328;2022-07-04T02:08:22;2.25;;;0.60;;
65073;SDS011;52218;51.224;-2.328;2022-07-04T02:12:04;2.65;;;0.68;;
65073;SDS011;52218;51.224;-2.328;2022-07-04T02:16:04;2.05;;;0.90;;
65073;SDS011;52218;51.224;-2.328;2022-07-04T02:19:47;1.80;;;0.68;;
65073;SDS011;52218;51.224;-2.328;2022-07-04T02:23:29;2.00;;;0.70;;
65073;SDS011;52218;51.224;-2.328;2022-07-04T02:27:11;1.08;;;0.60;;
65073;SDS011;52218;51.224;-2.328;2022-07-04T02:30:53;1.98;;;0.60;;
65073;SDS011;52218;51.224;-2.328;2022-07-04T02:34:35;2.30;;;0.98;;
65073;SDS011;52218;51.224;-2.328;2022-07-04T02:38:17;1.92;;;0.70;;
65073;SDS011;52218;51.224;-2.328;2022-07-04T02:41:59;1.42;;;0.70;;
65073;SDS011;52218;51.224;-2.328;2022-07-04T02:45:41;3.00;;;0.70;;
65073;SDS011;52218;51.224;-2.328;2022-07-04T02:49:23;1.83;;;0.70;;
65073;SDS011;52218;51.224;-2.328;2022-07-04T02:53:05;2.95;;;0.80;;
65073;SDS011;52218;51.224;-2.328;2022-07-04T02:56:47;1.48;;;0.60;;
65073;SDS011;52218;51.224;-2.328;2022-07-04T03:00:29;2.22;;;0.80;;
65073;SDS011;52218;51.224;-2.328;2022-07-04T03:04:11;3.00;;;0.70;;
65073;SDS011;52218;51.224;-2.328;2022-07-04T03:07:53;1.20;;;0.60;;
65073;SDS011;52218;51.224;-2.328;2022-07-04T03:11:35;1.60;;;0.70;;
65073;SDS011;52218;51.224;-2.328;2022-07-04T03:15:17;2.00;;;0.75;;
65073;SDS011;52218;51.224;-2.328;2022-07-04T03:18:59;1.38;;;0.55;;
65073;SDS011;52218;51.224;-2.328;2022-07-04T03:22:41;2.38;;;0.70;;
65073;SDS011;52218;51.224;-2.328;2022-07-04T03:26:24;1.50;;;0.70;;
65073;SDS011;52218;51.224;-2.328;2022-07-04T03:30:13;2.38;;;0.77;;
65073;SDS011;52218;51.224;-2.328;2022-07-04T03:33:55;1.35;;;0.77;;
65073;SDS011;52218;51.224;-2.328;2022-07-04T03:37:36;1.92;;;0.65;;
65073;SDS011;52218;51.224;-2.328;2022-07-04T03:41:18;0.93;;;0.60;;
65073;SDS011;52218;51.224;-2.328;2022-07-04T03:45:00;3.25;;;0.77;;
65073;SDS011;52218;51.224;-2.328;2022-07-04T03:48:42;2.53;;;0.90;;
65073;SDS011;52218;51.224;-2.328;2022-07-04T03:52:25;3.28;;;0.60;;
65073;SDS011;52218;51.224;-2.328;2022-07-04T03:56:07;3.05;;;0.90;;
65073;SDS011;52218;51.224;-2.328;2022-07-04T03:59:49;2.67;;;0.88;;
65073;SDS011;52218;51.224;-2.328;2022-07-04T04:03:31;2.53;;;0.68;;
65073;SDS011;52218;51.224;-2.328;2022-07-04T04:07:31;2.85;;;0.63;;
65073;SDS011;52218;51.224;-2.328;2022-07-04T04:11:13;2.03;;;0.60;;
65073;SDS011;52218;51.224;-2.328;2022-07-04T04:14:55;2.20;;;0.70;;
65073;SDS011;52218;51.224;-2.328;2022-07-04T04:18:37;3.53;;;0.70;;
65073;SDS011;52218;51.224;-2.328;2022-07-04T04:22:19;1.35;;;0.70;;
65073;SDS011;52218;51.224;-2.328;2022-07-04T04:26:01;1.15;;;0.50;;
65073;SDS011;52218;51.224;-2.328;2022-07-04T04:29:43;0.88;;;0.60;;
65073;SDS011;52218;51.224;-2.328;2022-07-04T04:33:25;2.47;;;0.98;;
65073;SDS011;52218;51.224;-2.328;2022-07-04T04:37:07;3.22;;;0.70;;
65073;SDS011;52218;51.224;-2.328;2022-07-04T04:40:48;1.77;;;0.65;;
65073;SDS011;52218;51.224;-2.328;2022-07-04T04:44:30;2.20;;;0.63;;
65073;SDS011;52218;51.224;-2.328;2022-07-04T04:48:12;1.63;;;0.80;;
65073;SDS011;52218;51.224;-2.328;2022-07-04T04:51:55;1.50;;;0.60;;
65073;SDS011;52218;51.224;-2.328;2022-07-04T04:55:37;1.85;;;1.17;;
65073;SDS011;52218;51.224;-2.328;2022-07-04T04:59:19;1.30;;;0.70;;
65073;SDS011;52218;51.224;-2.328;2022-07-04T05:03:01;2.08;;;0.70;;
65073;SDS011;52218;51.224;-2.328;2022-07-04T05:06:43;2.08;;;0.63;;
65073;SDS011;52218;51.224;-2.328;2022-07-04T05:10:25;1.77;;;0.68;;
65073;SDS011;52218;51.224;-2.328;2022-07-04T05:14:07;4.35;;;0.57;;
65073;SDS011;52218;51.224;-2.328;2022-07-04T05:17:49;4.22;;;0.90;;
65073;SDS011;52218;51.224;-2.328;2022-07-04T05:21:32;1.42;;;0.68;;
65073;SDS011;52218;51.224;-2.328;2022-07-04T05:25:14;1.60;;;0.63;;
65073;SDS011;52218;51.224;-2.328;2022-07-04T05:28:56;1.10;;;0.52;;
65073;SDS011;52218;51.224;-2.328;2022-07-04T05:32:39;2.17;;;0.60;;
65073;SDS011;52218;51.224;-2.328;2022-07-04T05:36:22;2.03;;;0.60;;
65073;SDS011;52218;51.224;-2.328;2022-07-04T05:40:10;2.75;;;0.70;;
65073;SDS011;52218;51.224;-2.328;2022-07-04T05:43:52;1.40;;;0.68;;
65073;SDS011;52218;51.224;-2.328;2022-07-04T05:47:39;1.38;;;0.47;;
65073;SDS011;52218;51.224;-2.328;2022-07-04T05:51:21;1.75;;;0.60;;
65073;SDS011;52218;51.224;-2.328;2022-07-04T05:55:03;1.52;;;0.55;;
65073;SDS011;52218;51.224;-2.328;2022-07-04T05:58:45;3.05;;;0.60;;
65073;SDS011;52218;51.224;-2.328;2022-07-04T06:02:28;2.55;;;0.70;;
65073;SDS011;52218;51.224;-2.328;2022-07-04T06:06:10;5.95;;;0.73;;
65073;SDS011;52218;51.224;-2.328;2022-07-04T06:09:52;1.92;;;0.52;;
65073;SDS011;52218;51.224;-2.328;2022-07-04T06:13:34;3.33;;;0.65;;
65073;SDS011;52218;51.224;-2.328;2022-07-04T06:17:16;2.05;;;0.60;;
65073;SDS011;52218;51.224;-2.328;2022-07-04T06:20:58;0.93;;;0.47;;
65073;SDS011;52218;51.224;-2.328;2022-07-04T06:24:40;1.15;;;0.43;;
65073;SDS011;52218;51.224;-2.328;2022-07-04T06:28:22;2.10;;;0.70;;
65073;SDS011;52218;51.224;-2.328;2022-07-04T06:32:25;1.70;;;0.60;;
65073;SDS011;52218;51.224;-2.328;2022-07-04T06:36:09;2.70;;;0.60;;
65073;SDS011;52218;51.224;-2.328;2022-07-04T06:39:50;1.60;;;0.60;;
65073;SDS011;52218;51.224;-2.328;2022-07-04T06:43:32;1.73;;;0.57;;
65073;SDS011;52218;51.224;-2.328;2022-07-04T06:47:14;3.20;;;0.65;;
65073;SDS011;52218;51.224;-2.328;2022-07-04T06:50:56;2.47;;;0.50;;
65073;SDS011;52218;51.224;-2.328;2022-07-04T06:54:38;1.20;;;0.50;;
65073;SDS011;52218;51.224;-2.328;2022-07-04T06:58:20;1.13;;;0.50;;
65073;SDS011;52218;51.224;-2.328;2022-07-04T07:02:02;1.48;;;0.50;;
65073;SDS011;52218;51.224;-2.328;2022-07-04T07:05:44;3.30;;;0.50;;
65073;SDS011;52218;51.224;-2.328;2022-07-04T07:09:42;1.50;;;0.52;;
65073;SDS011;52218;51.224;-2.328;2022-07-04T07:13:25;4.38;;;0.80;;
65073;SDS011;52218;51.224;-2.328;2022-07-04T07:17:07;3.35;;;0.40;;
65073;SDS011;52218;51.224;-2.328;2022-07-04T07:20:49;3.17;;;0.70;;
65073;SDS011;52218;51.224;-2.328;2022-07-04T07:24:31;3.97;;;0.70;;
65073;SDS011;52218;51.224;-2.328;2022-07-04T07:28:13;3.85;;;0.50;;
65073;SDS011;52218;51.224;-2.328;2022-07-04T07:31:55;3.45;;;0.50;;
65073;SDS011;52218;51.224;-2.328;2022-07-04T07:35:37;3.38;;;0.90;;
65073;SDS011;52218;51.224;-2.328;2022-07-04T07:39:22;1.95;;;0.60;;
65073;SDS011;52218;51.224;-2.328;2022-07-04T07:43:04;4.97;;;0.47;;
65073;SDS011;52218;51.224;-2.328;2022-07-04T07:46:46;4.82;;;0.60;;
65073;SDS011;52218;51.224;-2.328;2022-07-04T07:50:28;2.47;;;0.40;;
65073;SDS011;52218;51.224;-2.328;2022-07-04T07:54:10;2.00;;;0.60;;
65073;SDS011;52218;51.224;-2.328;2022-07-04T07:57:57;3.22;;;0.60;;
65073;SDS011;52218;51.224;-2.328;2022-07-04T08:01:40;3.92;;;0.82;;
65073;SDS011;52218;51.224;-2.328;2022-07-04T08:05:22;1.70;;;0.40;;
65073;SDS011;52218;51.224;-2.328;2022-07-04T08:09:04;2.47;;;0.57;;
65073;SDS011;52218;51.224;-2.328;2022-07-04T08:12:47;2.35;;;0.35;;
65073;SDS011;52218;51.224;-2.328;2022-07-04T08:16:29;2.78;;;0.40;;
65073;SDS011;52218;51.224;-2.328;2022-07-04T08:20:31;1.80;;;0.38;;
65073;SDS011;52218;51.224;-2.328;2022-07-04T08:24:32;3.55;;;0.40;;
65073;SDS011;52218;51.224;-2.328;2022-07-04T08:28:14;1.73;;;0.50;;
65073;SDS011;52218;51.224;-2.328;2022-07-04T08:31:57;5.40;;;0.70;;
65073;SDS011;52218;51.224;-2.328;2022-07-04T08:35:39;1.77;;;0.50;;
65073;SDS011;52218;51.224;-2.328;2022-07-04T08:39:21;1.70;;;0.32;;
65073;SDS011;52218;51.224;-2.328;2022-07-04T08:43:03;1.92;;;0.45;;
65073;SDS011;52218;51.224;-2.328;2022-07-04T08:46:45;2.45;;;0.60;;
65073;SDS011;52218;51.224;-2.328;2022-07-04T08:54:19;2.53;;;0.40;;
65073;SDS011;52218;51.224;-2.328;2022-07-04T08:58:24;1.85;;;0.38;;
65073;SDS011;52218;51.224;-2.328;2022-07-04T09:02:07;1.48;;;0.43;;
65073;SDS011;52218;51.224;-2.328;2022-07-04T09:05:56;3.30;;;0.75;;
65073;SDS011;52218;51.224;-2.328;2022-07-04T09:09:39;2.15;;;0.40;;
65073;SDS011;52218;51.224;-2.328;2022-07-04T09:13:22;0.88;;;0.25;;
65073;SDS011;52218;51.224;-2.328;2022-07-04T09:17:05;1.35;;;0.40;;
65073;SDS011;52218;51.224;-2.328;2022-07-04T09:20:47;2.53;;;0.50;;
65073;SDS011;52218;51.224;-2.328;2022-07-04T09:28:28;3.10;;;0.45;;
65073;SDS011;52218;51.224;-2.328;2022-07-04T09:32:10;1.00;;;0.30;;
65073;SDS011;52218;51.224;-2.328;2022-07-04T09:35:52;5.93;;;0.50;;
65073;SDS011;52218;51.224;-2.328;2022-07-04T09:39:34;1.77;;;0.30;;
65073;SDS011;52218;51.224;-2.328;2022-07-04T09:43:19;1.38;;;0.70;;
65073;SDS011;52218;51.224;-2.328;2022-07-04T09:47:26;2.88;;;0.65;;
65073;SDS011;52218;51.224;-2.328;2022-07-04T09:51:10;1.48;;;0.38;;
65073;SDS011;52218;51.224;-2.328;2022-07-04T09:54:52;2.42;;;0.35;;
65073;SDS011;52218;51.224;-2.328;2022-07-04T09:58:37;1.13;;;0.20;;
65073;SDS011;52218;51.224;-2.328;2022-07-04T10:02:19;1.20;;;0.30;;
65073;SDS011;52218;51.224;-2.328;2022-07-04T10:09:52;1.23;;;0.30;;
65073;SDS011;52218;51.224;-2.328;2022-07-04T10:13:41;1.50;;;0.40;;
65073;SDS011;52218;51.224;-2.328;2022-07-04T10:17:24;2.22;;;0.40;;
65073;SDS011;52218;51.224;-2.328;2022-07-04T10:21:06;1.58;;;0.43;;
65073;SDS011;52218;51.224;-2.328;2022-07-04T10:24:48;2.47;;;0.40;;
65073;SDS011;52218;51.224;-2.328;2022-07-04T10:28:30;1.85;;;0.52;;
65073;SDS011;52218;51.224;-2.328;2022-07-04T10:32:13;1.55;;;0.28;;
65073;SDS011;52218;51.224;-2.328;2022-07-04T10:35:57;3.10;;;0.40;;
65073;SDS011;52218;51.224;-2.328;2022-07-04T10:39:43;1.50;;;0.32;;
65073;SDS011;52218;51.224;-2.328;2022-07-04T10:47:24;1.10;;;0.40;;
65073;SDS011;52218;51.224;-2.328;2022-07-04T10:51:09;0.98;;;0.30;;
65073;SDS011;52218;51.224;-2.328;2022-07-04T10:54:51;1.73;;;0.40;;
65073;SDS011;52218;51.224;-2.328;2022-07-04T10:58:40;2.25;;;0.40;;
65073;SDS011;52218;51.224;-2.328;2022-07-04T11:02:24;1.20;;;0.30;;
65073;SDS011;52218;51.224;-2.328;2022-07-04T11:06:37;1.15;;;0.40;;
65073;SDS011;52218;51.224;-2.328;2022-07-04T11:10:20;3.05;;;0.40;;
65073;SDS011;52218;51.224;-2.328;2022-07-04T11:18:13;1.23;;;0.20;;
65073;SDS011;52218;51.224;-2.328;2022-07-04T11:21:56;1.58;;;0.30;;
65073;SDS011;52218;51.224;-2.328;2022-07-04T11:25:39;1.25;;;0.30;;
65073;SDS011;52218;51.224;-2.328;2022-07-04T11:29:23;4.13;;;0.30;;
65073;SDS011;52218;51.224;-2.328;2022-07-04T11:33:15;1.38;;;0.28;;
65073;SDS011;52218;51.224;-2.328;2022-07-04T11:37:01;1.95;;;0.38;;
65073;SDS011;52218;51.224;-2.328;2022-07-04T11:40:44;1.17;;;0.30;;
65073;SDS011;52218;51.224;-2.328;2022-07-04T11:44:45;0.70;;;0.20;;
65073;SDS011;52218;51.224;-2.328;2022-07-04T11:48:46;3.83;;;0.20;;
65073;SDS011;52218;51.224;-2.328;2022-07-04T11:52:30;0.60;;;0.13;;
65073;SDS011;52218;51.224;-2.328;2022-07-04T11:56:43;2.45;;;0.30;;
65073;SDS011;52218;51.224;-2.328;2022-07-04T12:00:26;0.77;;;0.20;;
65073;SDS011;52218;51.224;-2.328;2022-07-04T12:04:17;1.20;;;0.20;;
65073;SDS011;52218;51.224;-2.328;2022-07-04T12:08:00;0.73;;;0.20;;
65073;SDS011;52218;51.224;-2.328;2022-07-04T12:12:04;0.68;;;0.30;;
65073;SDS011;52218;51.224;-2.328;2022-07-04T12:15:50;0.63;;;0.20;;
65073;SDS011;52218;51.224;-2.328;2022-07-04T12:19:34;1.75;;;0.20;;
65073;SDS011;52218;51.224;-2.328;2022-07-04T12:23:16;0.40;;;0.17;;
65073;SDS011;52218;51.224;-2.328;2022-07-04T12:27:00;2.47;;;0.20;;
65073;SDS011;52218;51.224;-2.328;2022-07-04T12:34:30;0.35;;;0.20;;
65073;SDS011;52218;51.224;-2.328;2022-07-04T12:42:10;0.50;;;0.22;;
65073;SDS011;52218;51.224;-2.328;2022-07-04T12:45:55;0.35;;;0.10;;
65073;SDS011;52218;51.224;-2.328;2022-07-04T12:49:41;1.27;;;0.30;;
65073;SDS011;52218;51.224;-2.328;2022-07-04T12:53:26;1.05;;;0.30;;
65073;SDS011;52218;51.224;-2.328;2022-07-04T12:57:20;2.30;;;0.30;;
65073;SDS011;52218;51.224;-2.328;2022-07-04T13:01:02;0.85;;;0.20;;
65073;SDS011;52218;51.224;-2.328;2022-07-04T13:04:45;1.15;;;0.15;;
65073;SDS011;52218;51.224;-2.328;2022-07-04T13:08:26;1.42;;;0.35;;
65073;SDS011;52218;51.224;-2.328;2022-07-04T13:12:09;0.90;;;0.30;;
65073;SDS011;52218;51.224;-2.328;2022-07-04T13:16:10;0.65;;;0.20;;
65073;SDS011;52218;51.224;-2.328;2022-07-04T13:19:52;0.52;;;0.20;;
65073;SDS011;52218;51.224;-2.328;2022-07-04T13:23:34;0.57;;;0.20;;
65073;SDS011;52218;51.224;-2.328;2022-07-04T13:27:17;0.65;;;0.30;;
65073;SDS011;52218;51.224;-2.328;2022-07-04T13:30:59;2.65;;;0.30;;
65073;SDS011;52218;51.224;-2.328;2022-07-04T13:34:42;6.20;;;0.35;;
65073;SDS011;52218;51.224;-2.328;2022-07-04T13:38:24;1.55;;;0.40;;
65073;SDS011;52218;51.224;-2.328;2022-07-04T13:42:07;0.93;;;0.30;;
65073;SDS011;52218;51.224;-2.328;2022-07-04T13:45:48;0.70;;;0.30;;
65073;SDS011;52218;51.224;-2.328;2022-07-04T13:49:31;1.38;;;0.40;;
65073;SDS011;52218;51.224;-2.328;2022-07-04T13:53:13;0.70;;;0.30;;
65073;SDS011;52218;51.224;-2.328;2022-07-04T13:56:55;3.17;;;0.32;;
65073;SDS011;52218;51.224;-2.328;2022-07-04T14:00:37;0.50;;;0.30;;
65073;SDS011;52218;51.224;-2.328;2022-07-04T14:04:22;1.90;;;0.40;;
65073;SDS011;52218;51.224;-2.328;2022-07-04T14:08:04;1.88;;;0.35;;
65073;SDS011;52218;51.224;-2.328;2022-07-04T14:11:46;1.75;;;0.40;;
65073;SDS011;52218;51.224;-2.328;2022-07-04T14:15:31;2.08;;;0.50;;
65073;SDS011;52218;51.224;-2.328;2022-07-04T14:19:13;3.50;;;0.38;;
65073;SDS011;52218;51.224;-2.328;2022-07-04T14:23:01;0.85;;;0.40;;
65073;SDS011;52218;51.224;-2.328;2022-07-04T14:26:43;1.52;;;0.20;;
65073;SDS011;52218;51.224;-2.328;2022-07-04T14:30:24;1.20;;;0.40;;
65073;SDS011;52218;51.224;-2.328;2022-07-04T14:34:06;1.95;;;0.43;;
65073;SDS011;52218;51.224;-2.328;2022-07-04T14:37:51;0.98;;;0.40;;
65073;SDS011;52218;51.224;-2.328;2022-07-04T14:41:37;2.27;;;0.50;;
65073;SDS011;52218;51.224;-2.328;2022-07-04T14:45:18;1.27;;;0.40;;
65073;SDS011;52218;51.224;-2.328;2022-07-04T14:49:00;2.53;;;0.40;;
65073;SDS011;52218;51.224;-2.328;2022-07-04T14:52:42;1.67;;;0.50;;
65073;SDS011;52218;51.224;-2.328;2022-07-04T14:56:24;0.93;;;0.40;;
65073;SDS011;52218;51.224;-2.328;2022-07-04T15:00:06;0.73;;;0.32;;
65073;SDS011;52218;51.224;-2.328;2022-07-04T15:03:49;0.80;;;0.40;;
65073;SDS011;52218;51.224;-2.328;2022-07-04T15:07:30;1.10;;;0.30;;
65073;SDS011;52218;51.224;-2.328;2022-07-04T15:11:12;0.77;;;0.40;;
65073;SDS011;52218;51.224;-2.328;2022-07-04T15:15:00;1.08;;;0.47;;
65073;SDS011;52218;51.224;-2.328;2022-07-04T15:18:43;3.08;;;0.38;;
65073;SDS011;52218;51.224;-2.328;2022-07-04T15:22:28;1.67;;;0.60;;
65073;SDS011;52218;51.224;-2.328;2022-07-04T15:26:28;1.23;;;0.38;;
65073;SDS011;52218;51.224;-2.328;2022-07-04T15:30:11;1.15;;;0.35;;
65073;SDS011;52218;51.224;-2.328;2022-07-04T15:33:53;1.15;;;0.40;;
65073;SDS011;52218;51.224;-2.328;2022-07-04T15:37:35;0.70;;;0.30;;
65073;SDS011;52218;51.224;-2.328;2022-07-04T15:41:17;1.02;;;0.50;;
65073;SDS011;52218;51.224;-2.328;2022-07-04T15:44:59;0.85;;;0.40;;
65073;SDS011;52218;51.224;-2.328;2022-07-04T15:48:41;1.50;;;0.50;;
65073;SDS011;52218;51.224;-2.328;2022-07-04T15:52:23;1.45;;;0.60;;
65073;SDS011;52218;51.224;-2.328;2022-07-04T15:56:06;0.90;;;0.50;;
65073;SDS011;52218;51.224;-2.328;2022-07-04T15:59:48;1.05;;;0.50;;
65073;SDS011;52218;51.224;-2.328;2022-07-04T16:03:30;1.02;;;0.30;;
65073;SDS011;52218;51.224;-2.328;2022-07-04T16:07:13;0.30;;;0.20;;
65073;SDS011;52218;51.224;-2.328;2022-07-04T16:10:55;2.78;;;0.45;;
65073;SDS011;52218;51.224;-2.328;2022-07-04T16:14:37;1.63;;;0.20;;
65073;SDS011;52218;51.224;-2.328;2022-07-04T16:18:19;1.23;;;0.22;;
65073;SDS011;52218;51.224;-2.328;2022-07-04T16:22:01;1.30;;;0.20;;
65073;SDS011;52218;51.224;-2.328;2022-07-04T16:25:43;0.77;;;0.22;;
65073;SDS011;52218;51.224;-2.328;2022-07-04T16:29:25;0.90;;;0.30;;
65073;SDS011;52218;51.224;-2.328;2022-07-04T16:33:07;0.93;;;0.40;;
65073;SDS011;52218;51.224;-2.328;2022-07-04T16:36:49;1.35;;;0.43;;
65073;SDS011;52218;51.224;-2.328;2022-07-04T16:40:31;2.05;;;0.60;;
65073;SDS011;52218;51.224;-2.328;2022-07-04T16:44:13;1.67;;;0.60;;
65073;SDS011;52218;51.224;-2.328;2022-07-04T16:47:55;0.88;;;0.50;;
65073;SDS011;52218;51.224;-2.328;2022-07-04T16:51:37;1.35;;;0.73;;
65073;SDS011;52218;51.224;-2.328;2022-07-04T16:55:19;0.88;;;0.50;;
65073;SDS011;52218;51.224;-2.328;2022-07-04T16:59:01;2.00;;;0.50;;
65073;SDS011;52218;51.224;-2.328;2022-07-04T17:02:43;1.50;;;0.20;;
65073;SDS011;52218;51.224;-2.328;2022-07-04T17:06:25;2.38;;;0.40;;
65073;SDS011;52218;51.224;-2.328;2022-07-04T17:10:08;0.95;;;0.50;;
65073;SDS011;52218;51.224;-2.328;2022-07-04T17:13:50;0.75;;;0.25;;
65073;SDS011;52218;51.224;-2.328;2022-07-04T17:17:34;0.52;;;0.20;;
65073;SDS011;52218;51.224;-2.328;2022-07-04T17:21:16;0.82;;;0.30;;
65073;SDS011;52218;51.224;-2.328;2022-07-04T17:24:58;0.73;;;0.35;;
65073;SDS011;52218;51.224;-2.328;2022-07-04T17:28:41;2.20;;;0.40;;
65073;SDS011;52218;51.224;-2.328;2022-07-04T17:32:24;4.15;;;0.50;;
65073;SDS011;52218;51.224;-2.328;2022-07-04T17:36:06;1.00;;;0.30;;
65073;SDS011;52218;51.224;-2.328;2022-07-04T17:39:48;1.02;;;0.40;;
65073;SDS011;52218;51.224;-2.328;2022-07-04T17:43:30;0.82;;;0.30;;
65073;SDS011;52218;51.224;-2.328;2022-07-04T17:47:12;0.95;;;0.28;;
65073;SDS011;52218;51.224;-2.328;2022-07-04T17:50:54;1.33;;;0.20;;
65073;SDS011;52218;51.224;-2.328;2022-07-04T17:54:36;0.35;;;0.20;;
65073;SDS011;52218;51.224;-2.328;2022-07-04T17:58:34;1.52;;;0.30;;
65073;SDS011;52218;51.224;-2.328;2022-07-04T18:02:16;1.00;;;0.30;;
65073;SDS011;52218;51.224;-2.328;2022-07-04T18:05:59;1.30;;;0.40;;
65073;SDS011;52218;51.224;-2.328;2022-07-04T18:09:41;1.55;;;0.30;;
65073;SDS011;52218;51.224;-2.328;2022-07-04T18:13:23;1.25;;;0.40;;
65073;SDS011;52218;51.224;-2.328;2022-07-04T18:17:05;1.27;;;0.32;;
65073;SDS011;52218;51.224;-2.328;2022-07-04T18:20:47;1.20;;;0.30;;
65073;SDS011;52218;51.224;-2.328;2022-07-04T18:24:29;2.85;;;0.55;;
65073;SDS011;52218;51.224;-2.328;2022-07-04T18:28:11;1.40;;;0.35;;
65073;SDS011;52218;51.224;-2.328;2022-07-04T18:31:55;0.88;;;0.30;;
65073;SDS011;52218;51.224;-2.328;2022-07-04T18:35:37;1.65;;;0.40;;
65073;SDS011;52218;51.224;-2.328;2022-07-04T18:39:24;1.95;;;0.30;;
65073;SDS011;52218;51.224;-2.328;2022-07-04T18:43:06;1.70;;;0.30;;
65073;SDS011;52218;51.224;-2.328;2022-07-04T18:47:06;0.65;;;0.20;;
65073;SDS011;52218;51.224;-2.328;2022-07-04T18:50:53;1.00;;;0.32;;
65073;SDS011;52218;51.224;-2.328;2022-07-04T18:54:36;1.42;;;0.30;;
65073;SDS011;52218;51.224;-2.328;2022-07-04T18:58:19;0.95;;;0.30;;
65073;SDS011;52218;51.224;-2.328;2022-07-04T19:02:03;1.27;;;0.40;;
65073;SDS011;52218;51.224;-2.328;2022-07-04T19:05:45;0.75;;;0.40;;
65073;SDS011;52218;51.224;-2.328;2022-07-04T19:09:28;0.95;;;0.20;;
65073;SDS011;52218;51.224;-2.328;2022-07-04T19:13:10;1.88;;;0.30;;
65073;SDS011;52218;51.224;-2.328;2022-07-04T19:16:53;2.45;;;0.57;;
65073;SDS011;52218;51.224;-2.328;2022-07-04T19:20:35;0.88;;;0.30;;
65073;SDS011;52218;51.224;-2.328;2022-07-04T19:24:17;2.00;;;0.40;;
65073;SDS011;52218;51.224;-2.328;2022-07-04T19:27:59;0.60;;;0.20;;
65073;SDS011;52218;51.224;-2.328;2022-07-04T19:31:41;1.80;;;0.40;;
65073;SDS011;52218;51.224;-2.328;2022-07-04T19:35:23;0.70;;;0.40;;
65073;SDS011;52218;51.224;-2.328;2022-07-04T19:39:05;4.78;;;0.88;;
65073;SDS011;52218;51.224;-2.328;2022-07-04T19:42:47;1.38;;;0.30;;
65073;SDS011;52218;51.224;-2.328;2022-07-04T19:46:30;1.70;;;0.40;;
65073;SDS011;52218;51.224;-2.328;2022-07-04T19:50:12;1.63;;;0.40;;
65073;SDS011;52218;51.224;-2.328;2022-07-04T19:53:54;1.05;;;0.40;;
65073;SDS011;52218;51.224;-2.328;2022-07-04T19:57:36;0.77;;;0.43;;
65073;SDS011;52218;51.224;-2.328;2022-07-04T20:01:21;1.27;;;0.40;;
65073;SDS011;52218;51.224;-2.328;2022-07-04T20:05:03;1.05;;;0.30;;
65073;SDS011;52218;51.224;-2.328;2022-07-04T20:08:51;1.15;;;0.45;;
65073;SDS011;52218;51.224;-2.328;2022-07-04T20:12:33;1.65;;;0.30;;
65073;SDS011;52218;51.224;-2.328;2022-07-04T20:16:15;0.47;;;0.20;;
65073;SDS011;52218;51.224;-2.328;2022-07-04T20:19:57;0.45;;;0.22;;
65073;SDS011;52218;51.224;-2.328;2022-07-04T20:23:41;1.48;;;0.38;;
65073;SDS011;52218;51.224;-2.328;2022-07-04T20:27:23;3.40;;;0.45;;
65073;SDS011;52218;51.224;-2.328;2022-07-04T20:31:06;1.33;;;0.40;;
65073;SDS011;52218;51.224;-2.328;2022-07-04T20:34:57;1.17;;;0.40;;
65073;SDS011;52218;51.224;-2.328;2022-07-04T20:38:41;2.00;;;0.50;;
65073;SDS011;52218;51.224;-2.328;2022-07-04T20:42:23;1.88;;;0.60;;
65073;SDS011;52218;51.224;-2.328;2022-07-04T20:46:06;0.93;;;0.30;;
65073;SDS011;52218;51.224;-2.328;2022-07-04T20:49:48;1.27;;;0.45;;
65073;SDS011;52218;51.224;-2.328;2022-07-04T20:53:31;1.65;;;0.35;;
65073;SDS011;52218;51.224;-2.328;2022-07-04T20:57:13;1.80;;;0.30;;
65073;SDS011;52218;51.224;-2.328;2022-07-04T21:00:55;1.40;;;0.40;;
65073;SDS011;52218;51.224;-2.328;2022-07-04T21:04:37;3.28;;;0.30;;
65073;SDS011;52218;51.224;-2.328;2022-07-04T21:08:35;1.05;;;0.40;;
65073;SDS011;52218;51.224;-2.328;2022-07-04T21:12:17;0.63;;;0.30;;
65073;SDS011;52218;51.224;-2.328;2022-07-04T21:15:59;0.98;;;0.40;;
65073;SDS011;52218;51.224;-2.328;2022-07-04T21:19:41;0.85;;;0.40;;
65073;SDS011;52218;51.224;-2.328;2022-07-04T21:23:23;2.55;;;0.43;;
65073;SDS011;52218;51.224;-2.328;2022-07-04T21:27:05;1.00;;;0.40;;
65073;SDS011;52218;51.224;-2.328;2022-07-04T21:30:47;1.27;;;0.40;;
65073;SDS011;52218;51.224;-2.328;2022-07-04T21:34:30;0.68;;;0.30;;
65073;SDS011;52218;51.224;-2.328;2022-07-04T21:38:12;1.02;;;0.40;;
65073;SDS011;52218;51.224;-2.328;2022-07-04T21:41:54;1.30;;;0.50;;
65073;SDS011;52218;51.224;-2.328;2022-07-04T21:45:36;1.10;;;0.45;;
65073;SDS011;52218;51.224;-2.328;2022-07-04T21:49:18;2.97;;;0.43;;
65073;SDS011;52218;51.224;-2.328;2022-07-04T21:53:00;2.53;;;0.65;;
65073;SDS011;52218;51.224;-2.328;2022-07-04T21:56:45;0.97;;;0.37;;
65073;SDS011;52218;51.224;-2.328;2022-07-04T22:00:27;1.45;;;0.63;;
65073;SDS011;52218;51.224;-2.328;2022-07-04T22:04:09;1.10;;;0.43;;
65073;SDS011;52218;51.224;-2.328;2022-07-04T22:07:51;1.13;;;0.50;;
65073;SDS011;52218;51.224;-2.328;2022-07-04T22:11:35;2.25;;;0.60;;
65073;SDS011;52218;51.224;-2.328;2022-07-04T22:15:17;1.00;;;0.47;;
65073;SDS011;52218;51.224;-2.328;2022-07-04T22:18:59;0.90;;;0.40;;
65073;SDS011;52218;51.224;-2.328;2022-07-04T22:22:41;1.40;;;0.45;;
65073;SDS011;52218;51.224;-2.328;2022-07-04T22:26:23;2.15;;;0.50;;
65073;SDS011;52218;51.224;-2.328;2022-07-04T22:30:05;1.98;;;0.40;;
65073;SDS011;52218;51.224;-2.328;2022-07-04T22:33:48;3.28;;;0.50;;